createdAt,value
2018-06-02T00:00:03.920Z,70.24
2018-06-02T00:01:09.695Z,70.41
2018-06-02T00:02:15.456Z,70.46
2018-06-02T00:03:21.214Z,70.58
2018-06-02T00:04:27.020Z,70.60
2018-06-02T00:05:32.786Z,70.65
2018-06-02T00:06:38.556Z,70.62
2018-06-02T00:07:44.427Z,70.68
2018-06-02T00:08:50.182Z,70.78
2018-06-02T00:09:56.754Z,70.87
2018-06-02T00:11:02.515Z,70.86
2018-06-02T00:12:08.263Z,70.89
2018-06-02T00:13:14.253Z,70.96
2018-06-02T00:14:20.026Z,71.05
2018-06-02T00:15:25.808Z,71.07
2018-06-02T00:16:31.555Z,71.04
2018-06-02T00:17:38.185Z,71.02
2018-06-02T00:18:43.949Z,71.10
2018-06-02T00:19:49.708Z,71.11
2018-06-02T00:20:55.503Z,71.21
2018-06-02T00:22:01.263Z,71.26
2018-06-02T00:23:07.031Z,71.25
2018-06-02T00:24:12.459Z,71.25
2018-06-02T00:25:18.223Z,71.31
2018-06-02T00:26:23.998Z,71.38
2018-06-02T00:27:29.756Z,71.40
2018-06-02T00:28:35.802Z,71.40
2018-06-02T00:29:41.558Z,71.37
2018-06-02T00:30:47.390Z,71.41
2018-06-02T00:31:53.172Z,71.42
2018-06-02T00:32:58.950Z,71.47
2018-06-02T00:34:05.412Z,71.51
2018-06-02T00:35:11.202Z,71.50
2018-06-02T00:36:16.956Z,71.60
2018-06-02T00:37:22.843Z,71.59
2018-06-02T00:38:29.359Z,71.62
2018-06-02T00:39:35.130Z,71.67
2018-06-02T00:40:41.656Z,71.67
2018-06-02T00:41:48.216Z,71.64
2018-06-02T00:42:54.010Z,71.59
2018-06-02T00:43:59.851Z,71.66
2018-06-02T00:45:05.267Z,71.66
2018-06-02T00:46:11.792Z,71.71
2018-06-02T00:47:17.555Z,71.70
2018-06-02T00:48:23.342Z,71.78
2018-06-02T00:49:29.100Z,71.89
2018-06-02T00:50:34.863Z,71.95
2018-06-02T00:51:40.628Z,71.98
2018-06-02T00:52:47.160Z,71.98
2018-06-02T00:53:52.936Z,72.02
2018-06-02T00:55:09.639Z,72.00
2018-06-02T00:56:16.409Z,72.08
2018-06-02T00:57:22.926Z,72.17
2018-06-02T00:58:28.680Z,72.19
2018-06-02T00:59:35.342Z,72.20
2018-06-02T01:00:42.611Z,72.22
2018-06-02T01:01:48.192Z,72.20
2018-06-02T01:02:53.955Z,72.05
2018-06-02T01:03:59.722Z,72.14
2018-06-02T01:05:05.174Z,72.08
2018-06-02T01:06:10.940Z,72.07
2018-06-02T01:07:18.197Z,72.18
2018-06-02T01:08:23.950Z,72.18
2018-06-02T01:09:29.704Z,72.17
2018-06-02T01:10:36.352Z,72.15
2018-06-02T01:11:48.880Z,72.16
2018-06-02T01:12:54.649Z,72.24
2018-06-02T01:14:00.415Z,72.12
2018-06-02T01:15:05.877Z,72.14
2018-06-02T01:16:13.083Z,72.09
2018-06-02T01:17:18.845Z,72.12
2018-06-02T01:18:24.616Z,72.15
2018-06-02T01:19:30.371Z,72.10
2018-06-02T01:20:36.960Z,72.21
2018-06-02T01:21:42.744Z,72.21
2018-06-02T01:22:48.515Z,72.19
2018-06-02T01:23:55.115Z,72.21
2018-06-02T01:25:00.881Z,72.29
2018-06-02T01:26:06.673Z,72.31
2018-06-02T01:27:13.231Z,72.35
2018-06-02T01:28:19.747Z,72.42
2018-06-02T01:29:25.519Z,72.37
2018-06-02T01:30:31.278Z,72.45
2018-06-02T01:31:37.799Z,72.49
2018-06-02T01:32:43.593Z,72.54
2018-06-02T01:33:50.117Z,72.60
2018-06-02T01:34:55.892Z,72.61
2018-06-02T01:36:01.652Z,72.62
2018-06-02T01:37:07.412Z,72.57
2018-06-02T01:38:13.232Z,72.64
2018-06-02T01:39:18.983Z,72.73
2018-06-02T01:40:24.767Z,72.66
2018-06-02T01:41:30.563Z,72.73
2018-06-02T01:42:36.100Z,72.81
2018-06-02T01:43:41.886Z,72.81
2018-06-02T01:44:47.648Z,72.79
2018-06-02T01:45:54.171Z,72.84
2018-06-02T01:46:59.980Z,72.89
2018-06-02T01:48:05.400Z,73.02
2018-06-02T01:49:11.177Z,73.08
2018-06-02T01:50:16.927Z,73.14
2018-06-02T01:51:22.684Z,73.22
2018-06-02T01:52:28.439Z,73.10
2018-06-02T01:53:34.200Z,73.24
2018-06-02T01:54:40.747Z,73.28
2018-06-02T01:55:47.279Z,73.31
2018-06-02T01:56:53.035Z,73.31
2018-06-02T01:57:58.807Z,73.30
2018-06-02T01:59:04.584Z,73.39
2018-06-02T02:00:10.394Z,73.39
2018-06-02T02:01:16.911Z,73.45
2018-06-02T02:02:22.668Z,73.61
2018-06-02T02:03:29.991Z,73.64
2018-06-02T02:04:35.762Z,73.69
2018-06-02T02:05:41.570Z,73.63
2018-06-02T02:06:47.339Z,73.73
2018-06-02T02:07:53.129Z,73.83
2018-06-02T02:08:58.887Z,73.81
2018-06-02T02:10:04.492Z,73.81
2018-06-02T02:11:10.268Z,73.89
2018-06-02T02:12:16.217Z,73.87
2018-06-02T02:13:21.963Z,73.95
2018-06-02T02:14:27.722Z,73.97
2018-06-02T02:15:33.474Z,74.01
2018-06-02T02:16:39.255Z,74.07
2018-06-02T02:17:45.812Z,74.03
2018-06-02T02:18:51.568Z,73.97
2018-06-02T02:19:58.100Z,74.06
2018-06-02T02:21:03.863Z,74.07
2018-06-02T02:22:10.426Z,74.11
2018-06-02T02:23:16.948Z,74.12
2018-06-02T02:24:23.026Z,74.04
2018-06-02T02:25:29.554Z,73.91
2018-06-02T02:26:35.354Z,73.89
2018-06-02T02:27:41.136Z,73.87
2018-06-02T02:28:46.890Z,73.97
2018-06-02T02:29:52.666Z,73.92
2018-06-02T02:30:59.186Z,73.82
2018-06-02T02:32:04.951Z,73.79
2018-06-02T02:33:11.524Z,73.75
2018-06-02T02:34:18.044Z,73.85
2018-06-02T02:35:23.855Z,73.90
2018-06-02T02:36:29.782Z,73.91
2018-06-02T02:37:36.303Z,74.04
2018-06-02T02:38:42.718Z,74.17
2018-06-02T02:39:48.478Z,74.39
2018-06-02T02:40:54.233Z,74.45
2018-06-02T02:41:59.995Z,74.49
2018-06-02T02:43:05.765Z,74.44
2018-06-02T02:44:12.312Z,74.39
2018-06-02T02:45:18.864Z,74.38
2018-06-02T02:46:24.616Z,74.31
2018-06-02T02:47:31.139Z,74.31
2018-06-02T02:48:36.907Z,74.36
2018-06-02T02:49:42.692Z,74.30
2018-06-02T02:50:48.459Z,74.30
2018-06-02T02:51:54.219Z,74.19
2018-06-02T02:53:00.031Z,74.30
2018-06-02T02:54:05.786Z,74.35
2018-06-02T02:55:11.566Z,74.43
2018-06-02T02:56:18.287Z,74.59
2018-06-02T02:57:24.047Z,74.75
2018-06-02T02:58:29.828Z,74.91
2018-06-02T02:59:35.583Z,75.07
2018-06-02T03:00:41.373Z,75.10
2018-06-02T03:01:47.116Z,75.09
2018-06-02T03:02:52.876Z,75.07
2018-06-02T03:03:59.423Z,75.06
2018-06-02T03:05:05.180Z,75.01
2018-06-02T03:06:11.735Z,74.81
2018-06-02T03:07:17.487Z,74.78
2018-06-02T03:08:24.012Z,74.83
2018-06-02T03:09:29.784Z,74.88
2018-06-02T03:10:36.319Z,74.83
2018-06-02T03:11:42.098Z,74.78
2018-06-02T03:12:48.376Z,74.75
2018-06-02T03:13:54.123Z,74.84
2018-06-02T03:14:59.884Z,74.87
2018-06-02T03:16:05.638Z,74.85
2018-06-02T03:17:11.412Z,74.85
2018-06-02T03:18:17.937Z,74.75
2018-06-02T03:19:23.694Z,74.82
2018-06-02T03:20:29.461Z,74.74
2018-06-02T03:21:35.979Z,74.87
2018-06-02T03:22:41.790Z,74.82
2018-06-02T03:23:47.543Z,74.74
2018-06-02T03:24:53.295Z,74.69
2018-06-02T03:25:59.054Z,74.64
2018-06-02T03:27:04.809Z,74.58
2018-06-02T03:28:10.599Z,74.63
2018-06-02T03:29:16.359Z,74.74
2018-06-02T03:30:22.539Z,74.76
2018-06-02T03:31:29.053Z,74.82
2018-06-02T03:32:34.825Z,74.87
2018-06-02T03:33:40.611Z,74.71
2018-06-02T03:34:47.128Z,74.48
2018-06-02T03:35:52.888Z,74.42
2018-06-02T03:36:58.643Z,74.35
2018-06-02T03:38:04.608Z,74.28
2018-06-02T03:39:10.387Z,74.11
2018-06-02T03:40:16.155Z,74.10
2018-06-02T03:41:22.679Z,74.12
2018-06-02T03:42:28.517Z,74.10
2018-06-02T03:43:33.982Z,74.17
2018-06-02T03:44:39.833Z,74.20
2018-06-02T03:45:45.666Z,74.24
2018-06-02T03:46:51.567Z,74.28
2018-06-02T03:47:57.398Z,74.26
2018-06-02T03:49:03.211Z,74.16
2018-06-02T03:50:09.008Z,74.02
2018-06-02T03:51:15.546Z,73.89
2018-06-02T03:52:21.316Z,73.74
2018-06-02T03:53:27.091Z,73.74
2018-06-02T03:54:33.611Z,73.62
2018-06-02T03:55:39.390Z,73.50
2018-06-02T03:56:45.142Z,73.46
2018-06-02T03:57:50.902Z,73.37
2018-06-02T03:58:57.579Z,73.34
2018-06-02T04:00:03.009Z,73.24
2018-06-02T04:01:08.903Z,73.12
2018-06-02T04:02:14.676Z,72.96
2018-06-02T04:03:20.439Z,72.77
2018-06-02T04:04:26.683Z,72.52
2018-06-02T04:05:34.000Z,72.30
2018-06-02T04:06:39.778Z,72.04
2018-06-02T04:07:45.544Z,71.81
2018-06-02T04:08:52.067Z,71.64
2018-06-02T04:09:57.823Z,71.51
2018-06-02T04:11:03.586Z,71.41
2018-06-02T04:12:10.139Z,71.23
2018-06-02T04:13:16.687Z,71.08
2018-06-02T04:14:23.221Z,70.90
2018-06-02T04:15:29.114Z,70.73
2018-06-02T04:16:35.648Z,70.60
2018-06-02T04:17:41.202Z,70.51
2018-06-02T04:18:47.737Z,70.36
2018-06-02T04:19:53.506Z,70.28
2018-06-02T04:21:00.033Z,70.17
2018-06-02T04:22:05.792Z,70.07
2018-06-02T04:23:11.600Z,70.04
2018-06-02T04:24:17.365Z,70.12
2018-06-02T04:25:23.682Z,70.26
2018-06-02T04:26:29.443Z,70.10
2018-06-02T04:27:35.213Z,69.96
2018-06-02T04:28:41.023Z,69.85
2018-06-02T04:29:46.792Z,69.76
2018-06-02T04:30:53.324Z,69.66
2018-06-02T04:31:59.104Z,69.59
2018-06-02T04:34:23.898Z,69.41
2018-06-02T04:35:30.435Z,69.25
2018-06-02T04:36:36.202Z,69.36
2018-06-02T04:37:42.731Z,69.32
2018-06-02T04:38:48.491Z,69.49
2018-06-02T04:39:55.057Z,69.40
2018-06-02T04:41:00.816Z,69.47
2018-06-02T04:42:07.332Z,69.48
2018-06-02T04:43:13.118Z,69.53
2018-06-02T04:44:19.901Z,69.52
2018-06-02T04:45:25.714Z,69.57
2018-06-02T04:46:32.299Z,69.48
2018-06-02T04:47:38.087Z,69.51
2018-06-02T04:48:43.861Z,69.45
2018-06-02T04:49:50.625Z,69.23
2018-06-02T04:50:57.208Z,68.95
2018-06-02T04:52:04.223Z,68.81
2018-06-02T04:53:09.973Z,68.69
2018-06-02T04:54:15.739Z,68.55
2018-06-02T04:55:22.272Z,68.34
2018-06-02T04:56:28.559Z,68.15
2018-06-02T04:57:35.106Z,68.10
2018-06-02T04:58:40.863Z,67.95
2018-06-02T04:59:47.391Z,67.71
2018-06-02T05:00:53.172Z,67.61
2018-06-02T05:01:59.735Z,67.25
2018-06-02T05:03:05.592Z,66.95
2018-06-02T05:04:11.339Z,66.81
2018-06-02T05:05:17.099Z,66.70
2018-06-02T05:06:22.859Z,66.35
2018-06-02T05:07:28.703Z,66.02
2018-06-02T05:08:34.455Z,65.75
2018-06-02T05:09:40.238Z,65.59
2018-06-02T05:10:46.001Z,65.45
2018-06-02T05:11:51.850Z,65.40
2018-06-02T05:12:57.654Z,65.33
2018-06-02T05:14:04.219Z,65.21
2018-06-02T05:15:10.761Z,65.16
2018-06-02T05:16:16.727Z,65.34
2018-06-02T05:17:22.498Z,65.45
2018-06-02T05:18:28.286Z,65.48
2018-06-02T05:19:34.809Z,65.32
2018-06-02T05:20:40.761Z,65.14
2018-06-02T05:21:46.518Z,65.14
2018-06-02T05:22:53.819Z,65.23
2018-06-02T05:24:00.372Z,65.27
2018-06-02T05:25:06.157Z,65.28
2018-06-02T05:26:11.926Z,65.29
2018-06-02T05:27:17.681Z,65.10
2018-06-02T05:28:23.488Z,64.86
2018-06-02T05:29:29.267Z,64.70
2018-06-02T05:30:35.040Z,64.46
2018-06-02T05:31:41.567Z,64.26
2018-06-02T05:32:48.110Z,64.01
2018-06-02T05:33:53.893Z,63.68
2018-06-02T05:35:00.455Z,63.37
2018-06-02T05:36:06.988Z,63.06
2018-06-02T05:37:12.752Z,62.70
2018-06-02T05:38:19.279Z,62.33
2018-06-02T05:39:25.053Z,62.06
2018-06-02T05:40:30.298Z,61.77
2018-06-02T05:41:36.819Z,61.53
2018-06-02T05:42:42.584Z,61.31
2018-06-02T05:43:49.130Z,61.01
2018-06-02T05:44:54.916Z,61.21
2018-06-02T05:46:00.821Z,61.05
2018-06-02T05:47:07.112Z,60.99
2018-06-02T05:48:12.879Z,60.90
2018-06-02T05:49:18.641Z,60.67
2018-06-02T05:50:24.685Z,60.43
2018-06-02T05:51:30.468Z,60.17
2018-06-02T05:52:37.027Z,60.11
2018-06-02T05:53:43.558Z,59.89
2018-06-02T05:54:49.415Z,59.58
2018-06-02T05:55:54.839Z,59.58
2018-06-02T05:57:00.635Z,59.58
2018-06-02T05:58:06.398Z,59.59
2018-06-02T05:59:12.187Z,59.65
2018-06-02T06:00:18.738Z,59.74
2018-06-02T06:01:24.588Z,59.73
2018-06-02T06:02:31.175Z,59.78
2018-06-02T06:03:36.982Z,59.81
2018-06-02T06:04:42.769Z,59.92
2018-06-02T06:05:48.528Z,59.85
2018-06-02T06:06:54.335Z,59.68
2018-06-02T06:08:00.298Z,59.56
2018-06-02T06:09:06.039Z,59.34
2018-06-02T06:10:11.804Z,59.18
2018-06-02T06:11:17.574Z,58.99
2018-06-02T06:12:23.336Z,58.52
2018-06-02T06:13:29.895Z,58.20
2018-06-02T06:14:36.427Z,57.97
2018-06-02T06:15:42.213Z,58.06
2018-06-02T06:16:47.979Z,58.14
2018-06-02T06:17:53.759Z,58.35
2018-06-02T06:18:59.545Z,58.69
2018-06-02T06:20:04.996Z,59.09
2018-06-02T06:21:10.752Z,59.41
2018-06-02T06:22:16.522Z,59.68
2018-06-02T06:23:23.809Z,60.04
2018-06-02T06:24:31.121Z,60.52
2018-06-02T06:25:36.927Z,60.83
2018-06-02T06:26:42.700Z,61.18
2018-06-02T06:27:48.464Z,61.51
2018-06-02T06:28:54.244Z,61.86
2018-06-02T06:30:00.046Z,62.10
2018-06-02T06:31:05.587Z,62.29
2018-06-02T06:32:11.410Z,62.57
2018-06-02T06:33:17.179Z,62.73
2018-06-02T06:34:22.955Z,62.92
2018-06-02T06:35:28.949Z,62.90
2018-06-02T06:36:34.708Z,63.00
2018-06-02T06:37:40.488Z,63.17
2018-06-02T06:38:47.031Z,63.23
2018-06-02T06:39:52.808Z,63.47
2018-06-02T06:40:59.099Z,63.69
2018-06-02T06:42:04.885Z,63.78
2018-06-02T06:43:11.431Z,63.95
2018-06-02T06:44:17.211Z,64.24
2018-06-02T06:45:23.003Z,64.41
2018-06-02T06:46:28.866Z,64.45
2018-06-02T06:47:34.795Z,64.45
2018-06-02T06:48:40.586Z,64.44
2018-06-02T06:49:47.117Z,64.29
2018-06-02T06:50:52.888Z,64.21
2018-06-02T06:51:58.689Z,64.12
2018-06-02T06:53:04.464Z,64.21
2018-06-02T06:54:10.007Z,64.31
2018-06-02T06:55:16.522Z,64.45
2018-06-02T06:56:22.286Z,64.50
2018-06-02T06:57:28.075Z,64.59
2018-06-02T06:58:33.841Z,64.57
2018-06-02T06:59:39.619Z,64.57
2018-06-02T07:00:46.166Z,64.52
2018-06-02T07:01:51.934Z,64.45
2018-06-02T07:02:58.491Z,64.33
2018-06-02T07:04:05.045Z,64.11
2018-06-02T07:05:11.635Z,64.03
2018-06-02T07:06:17.607Z,64.01
2018-06-02T07:07:23.384Z,64.06
2018-06-02T07:08:29.182Z,64.04
2018-06-02T07:09:34.955Z,64.03
2018-06-02T07:10:40.515Z,63.98
2018-06-02T07:11:47.076Z,64.00
2018-06-02T07:12:53.032Z,63.97
2018-06-02T07:13:59.699Z,63.91
2018-06-02T07:15:05.900Z,63.86
2018-06-02T07:16:11.884Z,63.79
2018-06-02T07:17:17.651Z,63.85
2018-06-02T07:18:23.439Z,63.80
2018-06-02T07:19:29.350Z,63.87
2018-06-02T07:20:35.126Z,63.86
2018-06-02T07:21:40.744Z,63.77
2018-06-02T07:22:46.782Z,63.81
2018-06-02T07:23:52.564Z,63.78
2018-06-02T07:24:59.146Z,63.91
2018-06-02T07:26:05.359Z,64.15
2018-06-02T07:27:11.143Z,64.27
2018-06-02T07:28:17.726Z,64.34
2018-06-02T07:29:24.492Z,64.21
2018-06-02T07:30:30.489Z,64.36
2018-06-02T07:31:37.040Z,64.41
2018-06-02T07:32:42.824Z,64.51
2018-06-02T07:33:49.430Z,64.55
2018-06-02T07:34:55.237Z,64.47
2018-06-02T07:36:00.899Z,64.42
2018-06-02T07:37:07.464Z,64.40
2018-06-02T07:38:13.334Z,64.26
2018-06-02T07:39:19.977Z,64.05
2018-06-02T07:40:25.794Z,64.04
2018-06-02T07:41:31.673Z,63.84
2018-06-02T07:42:37.442Z,63.76
2018-06-02T07:43:44.018Z,63.72
2018-06-02T07:44:50.557Z,63.56
2018-06-02T07:45:57.836Z,63.29
2018-06-02T07:47:03.643Z,63.16
2018-06-02T07:48:09.428Z,62.92
2018-06-02T07:49:15.992Z,62.85
2018-06-02T07:50:22.543Z,62.68
2018-06-02T07:51:29.082Z,62.67
2018-06-02T07:52:34.844Z,62.61
2018-06-02T07:53:41.407Z,62.17
2018-06-02T07:54:47.031Z,62.12
2018-06-02T07:55:52.828Z,62.17
2018-06-02T07:56:58.768Z,62.04
2018-06-02T07:58:04.576Z,62.10
2018-06-02T07:59:11.113Z,62.02
2018-06-02T08:00:16.900Z,62.02
2018-06-02T08:01:22.719Z,61.82
2018-06-02T08:02:28.492Z,61.83
2018-06-02T08:03:34.312Z,61.68
2018-06-02T08:04:40.853Z,61.54
2018-06-02T08:05:46.626Z,61.29
2018-06-02T08:06:52.427Z,61.02
2018-06-02T08:07:58.190Z,60.82
2018-06-02T08:09:04.479Z,60.48
2018-06-02T08:10:10.323Z,60.46
2018-06-02T08:11:16.110Z,60.26
2018-06-02T08:12:22.670Z,60.16
2018-06-02T08:13:29.044Z,59.93
2018-06-02T08:14:35.620Z,59.76
2018-06-02T08:15:42.180Z,59.77
2018-06-02T08:16:48.727Z,59.81
2018-06-02T08:17:54.495Z,59.75
2018-06-02T08:19:01.063Z,59.84
2018-06-02T08:20:07.439Z,59.90
2018-06-02T08:21:13.304Z,60.01
2018-06-02T08:22:19.084Z,60.16
2018-06-02T08:23:24.864Z,60.28
2018-06-02T08:24:30.632Z,60.29
2018-06-02T08:25:36.507Z,60.32
2018-06-02T08:26:42.304Z,60.24
2018-06-02T08:27:48.267Z,60.18
2018-06-02T08:28:54.106Z,60.02
2018-06-02T08:29:59.934Z,59.74
2018-06-02T08:31:05.846Z,59.50
2018-06-02T08:32:12.445Z,59.17
2018-06-02T08:33:19.322Z,58.91
2018-06-02T08:34:25.867Z,58.80
2018-06-02T08:35:31.787Z,58.84
2018-06-02T08:36:37.615Z,58.82
2018-06-02T08:37:43.439Z,58.70
2018-06-02T08:38:50.030Z,58.89
2018-06-02T08:39:55.800Z,59.10
2018-06-02T08:41:01.613Z,59.49
2018-06-02T08:42:08.332Z,59.80
2018-06-02T08:43:14.882Z,60.04
2018-06-02T08:44:23.014Z,60.03
2018-06-02T08:45:28.797Z,60.14
2018-06-02T08:46:35.009Z,60.28
2018-06-02T08:47:40.869Z,60.48
2018-06-02T08:48:46.650Z,60.62
2018-06-02T08:49:52.773Z,60.80
2018-06-02T08:50:59.348Z,61.02
2018-06-02T08:52:06.255Z,61.12
2018-06-02T08:53:12.081Z,61.22
2018-06-02T08:54:18.749Z,61.46
2018-06-02T08:55:24.688Z,61.61
2018-06-02T08:56:32.231Z,61.81
2018-06-02T08:57:38.765Z,62.11
2018-06-02T08:58:44.573Z,62.28
2018-06-02T08:59:51.143Z,62.29
2018-06-02T09:00:57.694Z,62.23
2018-06-02T09:02:04.228Z,62.15
2018-06-02T09:03:10.010Z,62.38
2018-06-02T09:04:16.587Z,62.54
2018-06-02T09:05:22.399Z,62.73
2018-06-02T09:06:28.411Z,62.71
2018-06-02T09:07:34.376Z,62.63
2018-06-02T09:08:40.938Z,62.63
2018-06-02T09:09:46.782Z,62.61
2018-06-02T09:10:53.355Z,62.68
2018-06-02T09:12:00.957Z,62.64
2018-06-02T09:13:07.524Z,62.39
2018-06-02T09:14:13.297Z,62.06
2018-06-02T09:15:20.149Z,61.74
2018-06-02T09:16:25.934Z,61.90
2018-06-02T09:17:32.615Z,61.79
2018-06-02T09:18:38.392Z,61.65
2018-06-02T09:19:44.468Z,61.74
2018-06-02T09:20:50.119Z,61.38
2018-06-02T09:21:56.888Z,61.04
2018-06-02T09:23:06.250Z,60.84
2018-06-02T09:24:12.912Z,60.89
2018-06-02T09:25:19.623Z,60.73
2018-06-02T09:26:25.626Z,60.60
2018-06-02T09:27:32.508Z,60.05
2018-06-02T09:28:38.661Z,59.86
2018-06-02T09:29:46.550Z,59.72
2018-06-02T09:30:52.598Z,59.38
2018-06-02T09:31:58.480Z,59.15
2018-06-02T09:33:06.103Z,58.99
2018-06-02T09:34:13.195Z,59.01
2018-06-02T09:35:20.135Z,58.90
2018-06-02T09:36:26.540Z,58.72
2018-06-02T09:37:38.406Z,58.66
2018-06-02T09:38:44.358Z,58.44
2018-06-02T09:39:51.432Z,58.18
2018-06-02T09:40:58.292Z,57.73
2018-06-02T09:42:05.066Z,57.71
2018-06-02T09:43:11.821Z,57.58
2018-06-02T09:44:18.536Z,57.43
2018-06-02T09:45:26.463Z,57.49
2018-06-02T09:46:34.538Z,57.72
2018-06-02T09:47:42.591Z,57.88
2018-06-02T09:48:49.442Z,57.75
2018-06-02T09:49:56.515Z,57.92
2018-06-02T09:51:03.285Z,58.37
2018-06-02T09:52:09.944Z,58.53
2018-06-02T09:53:16.099Z,58.63
2018-06-02T09:54:22.255Z,58.56
2018-06-02T09:55:28.874Z,58.51
2018-06-02T09:56:35.801Z,58.67
2018-06-02T09:57:42.243Z,59.22
2018-06-02T09:58:49.406Z,59.35
2018-06-02T09:59:55.561Z,59.97
2018-06-02T10:01:03.833Z,60.45
2018-06-02T10:02:10.382Z,60.60
2018-06-02T10:03:18.129Z,60.62
2018-06-02T10:04:24.164Z,60.91
2018-06-02T10:05:31.860Z,61.04
2018-06-02T10:06:37.860Z,61.16
2018-06-02T10:07:46.956Z,60.96
2018-06-02T10:08:52.787Z,60.89
2018-06-02T10:09:59.894Z,61.01
2018-06-02T10:11:08.103Z,61.19
2018-06-02T10:12:14.209Z,60.86
2018-06-02T10:13:20.079Z,60.57
2018-06-02T10:14:26.201Z,60.65
2018-06-02T10:15:32.019Z,59.92
2018-06-02T10:16:38.265Z,59.90
2018-06-02T10:17:44.185Z,59.85
2018-06-02T10:18:49.973Z,59.99
2018-06-02T10:19:56.618Z,59.66
2018-06-02T10:21:02.733Z,60.18
2018-06-02T10:22:08.906Z,60.37
2018-06-02T10:23:14.776Z,60.39
2018-06-02T10:24:22.242Z,60.54
2018-06-02T10:25:29.137Z,60.49
2018-06-02T10:26:35.174Z,60.26
2018-06-02T10:27:42.139Z,60.39
2018-06-02T10:28:48.612Z,60.23
2018-06-02T10:29:55.648Z,60.44
2018-06-02T10:31:01.608Z,60.28
2018-06-02T10:32:08.038Z,60.25
2018-06-02T10:33:14.090Z,60.11
2018-06-02T10:34:20.192Z,59.95
2018-06-02T10:35:26.825Z,59.93
2018-06-02T10:36:32.748Z,59.98
2018-06-02T10:37:38.689Z,60.11
2018-06-02T10:38:46.246Z,60.24
2018-06-02T10:39:54.496Z,60.27
2018-06-02T10:41:00.538Z,60.41
2018-06-02T10:42:06.738Z,60.46
2018-06-02T10:43:14.119Z,60.53
2018-06-02T10:44:19.912Z,60.88
2018-06-02T10:45:27.604Z,60.91
2018-06-02T10:46:34.579Z,61.00
2018-06-02T10:47:40.557Z,61.07
2018-06-02T10:48:46.357Z,61.19
2018-06-02T10:49:52.211Z,60.97
2018-06-02T10:50:58.225Z,60.70
2018-06-02T10:52:05.023Z,60.65
2018-06-02T10:53:11.469Z,60.53
2018-06-02T10:54:17.318Z,60.49
2018-06-02T10:55:23.270Z,60.48
2018-06-02T10:56:30.138Z,60.38
2018-06-02T10:57:36.288Z,60.40
2018-06-02T10:58:42.180Z,60.22
2018-06-02T10:59:48.102Z,60.14
2018-06-02T11:00:54.432Z,59.94
2018-06-02T11:02:00.859Z,59.70
2018-06-02T11:03:09.056Z,59.60
2018-06-02T11:04:15.719Z,59.34
2018-06-02T11:05:24.302Z,59.22
2018-06-02T11:06:30.696Z,59.27
2018-06-02T11:07:37.345Z,59.13
2018-06-02T11:08:45.478Z,58.87
2018-06-02T11:09:54.204Z,58.72
2018-06-02T11:11:01.286Z,58.52
2018-06-02T11:12:09.683Z,58.07
2018-06-02T11:13:16.727Z,57.98
2018-06-02T11:14:22.632Z,57.88
2018-06-02T11:15:28.607Z,57.67
2018-06-02T11:16:34.538Z,57.54
2018-06-02T11:17:42.186Z,57.40
2018-06-02T11:18:48.459Z,57.29
2018-06-02T11:19:54.610Z,57.14
2018-06-02T11:21:00.829Z,57.03
2018-06-02T11:22:06.867Z,56.80
2018-06-02T11:23:14.492Z,56.80
2018-06-02T11:24:21.431Z,56.95
2018-06-02T11:25:27.672Z,57.00
2018-06-02T11:26:33.820Z,56.93
2018-06-02T11:27:39.877Z,56.88
2018-06-02T11:28:46.137Z,56.95
2018-06-02T11:29:52.378Z,56.93
2018-06-02T11:30:58.468Z,56.95
2018-06-02T11:32:05.485Z,57.26
2018-06-02T11:33:11.707Z,57.33
2018-06-02T11:34:19.507Z,57.58
2018-06-02T11:35:26.533Z,57.94
2018-06-02T11:36:32.657Z,58.08
2018-06-02T11:37:39.457Z,58.18
2018-06-02T11:38:45.638Z,58.13
2018-06-02T11:39:51.785Z,58.00
2018-06-02T11:40:58.805Z,57.87
2018-06-02T11:42:05.002Z,57.79
2018-06-02T11:43:12.780Z,57.81
2018-06-02T11:44:18.896Z,57.92
2018-06-02T11:45:25.860Z,57.77
2018-06-02T11:46:33.034Z,57.96
2018-06-02T11:47:40.107Z,58.14
2018-06-02T11:48:46.637Z,58.29
2018-06-02T11:49:52.553Z,58.71
2018-06-02T11:51:00.353Z,58.86
2018-06-02T11:52:07.445Z,59.25
2018-06-02T11:53:13.317Z,59.40
2018-06-02T11:54:19.469Z,59.74
2018-06-02T11:55:25.720Z,59.98
2018-06-02T11:56:31.873Z,60.24
2018-06-02T11:57:37.926Z,60.53
2018-06-02T11:58:43.970Z,60.79
2018-06-02T11:59:50.021Z,60.98
2018-06-02T12:00:55.985Z,61.24
2018-06-02T12:02:02.207Z,61.43
2018-06-02T12:03:09.254Z,61.67
2018-06-02T12:04:15.890Z,61.81
2018-06-02T12:05:23.330Z,61.96
2018-06-02T12:06:29.241Z,62.19
2018-06-02T12:07:36.166Z,62.62
2018-06-02T12:08:42.362Z,63.02
2018-06-02T12:09:49.124Z,63.32
2018-06-02T12:10:56.389Z,63.35
2018-06-02T12:12:02.748Z,63.88
2018-06-02T12:13:10.825Z,63.72
2018-06-02T12:14:17.758Z,64.14
2018-06-02T12:15:23.838Z,64.33
2018-06-02T12:16:29.749Z,64.27
2018-06-02T12:17:37.706Z,64.42
2018-06-02T12:18:44.009Z,64.37
2018-06-02T12:19:50.217Z,64.54
2018-06-02T12:20:56.506Z,64.84
2018-06-02T12:22:02.576Z,64.79
2018-06-02T12:23:08.554Z,64.44
2018-06-02T12:24:14.655Z,64.41
2018-06-02T12:25:20.874Z,64.76
2018-06-02T12:26:26.879Z,64.93
2018-06-02T12:27:32.918Z,65.35
2018-06-02T12:28:39.051Z,65.36
2018-06-02T12:29:45.485Z,65.58
2018-06-02T12:30:52.243Z,65.66
2018-06-02T12:31:58.156Z,65.86
2018-06-02T12:33:04.882Z,65.63
2018-06-02T12:34:11.034Z,65.67
2018-06-02T12:35:17.044Z,65.66
2018-06-02T12:36:23.853Z,65.64
2018-06-02T12:37:29.995Z,65.64
2018-06-02T12:38:36.152Z,65.84
2018-06-02T12:39:42.299Z,65.62
2018-06-02T12:40:50.296Z,65.66
2018-06-02T12:41:56.443Z,65.66
2018-06-02T12:43:02.474Z,65.84
2018-06-02T12:44:08.557Z,66.18
2018-06-02T12:45:14.611Z,66.36
2018-06-02T12:46:20.637Z,66.40
2018-06-02T12:47:26.231Z,66.58
2018-06-02T12:48:33.346Z,67.02
2018-06-02T12:49:39.387Z,67.00
2018-06-02T12:50:45.368Z,67.13
2018-06-02T12:51:51.480Z,67.36
2018-06-02T12:52:57.973Z,67.34
2018-06-02T12:54:04.499Z,67.19
2018-06-02T12:55:11.342Z,66.98
2018-06-02T12:56:17.928Z,66.92
2018-06-02T12:57:24.065Z,67.08
2018-06-02T12:58:30.265Z,67.54
2018-06-02T12:59:36.947Z,67.79
2018-06-02T13:00:43.661Z,67.73
2018-06-02T13:01:49.746Z,67.68
2018-06-02T13:02:57.292Z,67.19
2018-06-02T13:04:03.337Z,66.75
2018-06-02T13:05:09.345Z,66.60
2018-06-02T13:06:15.488Z,66.23
2018-06-02T13:07:22.292Z,66.02
2018-06-02T13:08:28.201Z,65.71
2018-06-02T13:09:35.850Z,65.78
2018-06-02T13:10:41.972Z,65.61
2018-06-02T13:11:48.428Z,65.07
2018-06-02T13:12:54.687Z,64.51
2018-06-02T13:14:00.946Z,64.32
2018-06-02T13:15:08.126Z,63.99
2018-06-02T13:16:14.374Z,63.63
2018-06-02T13:17:20.424Z,63.12
2018-06-02T13:18:26.576Z,62.67
2018-06-02T13:19:32.849Z,62.30
2018-06-02T13:20:39.189Z,61.43
2018-06-02T13:21:45.802Z,60.75
2018-06-02T13:22:52.917Z,60.19
2018-06-02T13:23:59.989Z,59.87
2018-06-02T13:25:05.828Z,59.26
2018-06-02T13:26:11.919Z,59.06
2018-06-02T13:27:18.720Z,59.01
2018-06-02T13:28:25.636Z,58.83
2018-06-02T13:29:31.768Z,58.80
2018-06-02T13:30:37.825Z,58.91
2018-06-02T13:31:44.082Z,58.55
2018-06-02T13:32:50.122Z,58.20
2018-06-02T13:33:56.146Z,58.15
2018-06-02T13:35:02.126Z,58.00
2018-06-02T13:36:08.204Z,58.10
2018-06-02T13:37:14.256Z,57.91
2018-06-02T13:38:21.983Z,57.71
2018-06-02T13:39:27.943Z,57.07
2018-06-02T13:40:34.024Z,57.00
2018-06-02T13:41:39.956Z,56.81
2018-06-02T13:42:45.981Z,56.55
2018-06-02T13:43:52.015Z,56.46
2018-06-02T13:44:58.635Z,55.95
2018-06-02T13:46:04.749Z,55.29
2018-06-02T13:47:10.897Z,55.29
2018-06-02T13:48:17.059Z,55.50
2018-06-02T13:49:23.828Z,55.12
2018-06-02T13:50:29.801Z,55.17
2018-06-02T13:51:36.923Z,55.10
2018-06-02T13:52:43.018Z,54.60
2018-06-02T13:53:49.448Z,54.47
2018-06-02T13:54:55.503Z,54.30
2018-06-02T13:56:01.572Z,53.94
2018-06-02T13:57:07.688Z,53.81
2018-06-02T13:58:13.729Z,53.17
2018-06-02T13:59:21.525Z,52.87
2018-06-02T14:00:27.502Z,52.85
2018-06-02T14:01:33.416Z,52.36
2018-06-02T14:02:39.324Z,52.03
2018-06-02T14:03:46.136Z,51.82
2018-06-02T14:04:52.149Z,51.16
2018-06-02T14:05:58.135Z,50.71
2018-06-02T14:07:04.424Z,50.76
2018-06-02T14:08:10.276Z,51.43
2018-06-02T14:09:17.086Z,51.42
2018-06-02T14:10:23.100Z,51.47
2018-06-02T14:11:29.751Z,50.22
2018-06-02T14:12:37.083Z,50.36
2018-06-02T14:13:42.909Z,50.76